createdAt,value
2022-09-12T00:01:16.466Z,15.50
2022-09-12T00:03:43.603Z,15.50
2022-09-12T00:06:23.074Z,15.40
2022-09-12T00:08:59.244Z,15.40
2022-09-12T00:11:27.489Z,15.40
2022-09-12T00:13:59.834Z,15.30
2022-09-12T00:16:29.708Z,15.30
2022-09-12T00:18:56.566Z,15.20
2022-09-12T00:21:24.020Z,15.20
2022-09-12T00:23:51.688Z,15.20
2022-09-12T00:26:20.601Z,15.10
2022-09-12T00:28:48.289Z,15.10
2022-09-12T00:31:21.096Z,15.00
2022-09-12T00:33:48.270Z,15.10
2022-09-12T00:36:17.967Z,15.00
2022-09-12T00:38:46.127Z,15.00
2022-09-12T00:41:18.027Z,15.00
2022-09-12T00:43:53.337Z,15.00
2022-09-12T00:46:29.088Z,15.00
2022-09-12T00:49:18.050Z,15.00
2022-09-12T00:51:52.741Z,15.00
2022-09-12T00:54:24.694Z,14.90
2022-09-12T00:56:56.109Z,14.90
2022-09-12T00:59:29.289Z,14.90
2022-09-12T01:01:56.534Z,14.90
2022-09-12T01:04:27.918Z,14.80
2022-09-12T01:06:59.045Z,14.80
2022-09-12T01:09:26.812Z,14.90
2022-09-12T01:11:55.006Z,14.80
2022-09-12T01:14:21.987Z,14.80
2022-09-12T01:16:50.363Z,14.80
2022-09-12T01:19:18.274Z,14.70
2022-09-12T01:22:10.141Z,14.70
2022-09-12T01:25:10.324Z,14.70
2022-09-12T01:27:42.095Z,14.70
2022-09-12T01:30:42.836Z,14.60
2022-09-12T01:33:25.464Z,14.60
2022-09-12T01:36:04.242Z,14.60
2022-09-12T01:39:02.184Z,14.50
2022-09-12T01:41:40.574Z,14.50
2022-09-12T01:44:24.125Z,14.50
2022-09-12T01:47:08.541Z,14.40
2022-09-12T01:50:08.049Z,14.40
2022-09-12T01:52:49.585Z,14.30
2022-09-12T01:55:22.521Z,14.30
2022-09-12T01:58:03.042Z,14.20
2022-09-12T02:00:34.607Z,14.20
2022-09-12T02:03:14.902Z,14.10
2022-09-12T02:05:49.011Z,14.10
2022-09-12T02:08:33.772Z,14.10
2022-09-12T02:11:08.301Z,14.00
2022-09-12T02:13:47.712Z,14.00
2022-09-12T02:16:18.292Z,14.00
2022-09-12T02:18:50.987Z,13.90
2022-09-12T02:21:20.339Z,14.00
2022-09-12T02:24:04.658Z,13.90
2022-09-12T02:26:39.829Z,13.90
2022-09-12T02:29:07.020Z,13.90
2022-09-12T02:31:40.654Z,13.90
2022-09-12T02:34:22.313Z,13.80
2022-09-12T02:37:07.791Z,13.80
2022-09-12T02:39:35.371Z,13.80
2022-09-12T02:42:04.080Z,13.70
2022-09-12T02:44:33.704Z,13.70
2022-09-12T02:47:11.391Z,13.70
2022-09-12T02:49:38.650Z,13.70
2022-09-12T02:52:05.391Z,13.70
2022-09-12T02:54:32.547Z,13.60
2022-09-12T02:56:59.989Z,13.60
2022-09-12T02:59:27.757Z,13.60
2022-09-12T03:02:06.519Z,13.60
2022-09-12T03:05:00.770Z,13.50
2022-09-12T03:07:48.864Z,13.50
2022-09-12T03:10:26.884Z,13.50
2022-09-12T03:13:17.392Z,13.50
2022-09-12T03:15:52.002Z,13.50
2022-09-12T03:18:36.977Z,13.50
2022-09-12T03:21:21.638Z,13.50
2022-09-12T03:24:01.484Z,13.40
2022-09-12T03:26:36.587Z,13.50
2022-09-12T03:29:06.465Z,13.50
2022-09-12T03:31:33.483Z,13.50
2022-09-12T03:34:00.640Z,13.50
2022-09-12T03:36:29.456Z,13.60
2022-09-12T03:38:56.763Z,13.50
2022-09-12T03:41:23.593Z,13.40
2022-09-12T03:43:50.978Z,13.50
2022-09-12T03:46:17.683Z,13.50
2022-09-12T03:48:44.960Z,13.40
2022-09-12T03:51:12.249Z,13.50
2022-09-12T03:53:39.029Z,13.50
2022-09-12T03:56:08.221Z,13.50
2022-09-12T03:58:36.453Z,13.50
2022-09-12T04:01:12.804Z,13.40
2022-09-12T04:03:44.612Z,13.40
2022-09-12T04:06:14.627Z,13.40
2022-09-12T04:08:42.267Z,13.40
2022-09-12T04:11:12.813Z,13.30
2022-09-12T04:13:41.072Z,13.40
2022-09-12T04:16:08.609Z,13.30
2022-09-12T04:18:36.072Z,13.30
2022-09-12T04:21:08.112Z,13.30
2022-09-12T04:23:37.022Z,13.30
2022-09-12T04:26:06.553Z,13.30
2022-09-12T04:28:34.556Z,13.30
2022-09-12T04:31:12.560Z,13.20
2022-09-12T04:33:40.032Z,13.20
2022-09-12T04:36:15.031Z,13.20
2022-09-12T04:38:42.252Z,13.20
2022-09-12T04:41:36.573Z,13.20
2022-09-12T04:44:13.949Z,13.20
2022-09-12T04:46:44.861Z,13.20
2022-09-12T04:49:13.172Z,13.20
2022-09-12T04:51:41.901Z,13.20
2022-09-12T04:54:12.453Z,13.20
2022-09-12T04:56:41.092Z,13.20
2022-09-12T04:59:08.886Z,13.20
2022-09-12T05:01:36.043Z,13.20
2022-09-12T05:04:03.820Z,13.20
2022-09-12T05:06:34.547Z,13.20
2022-09-12T05:09:02.736Z,13.30
2022-09-12T05:11:59.750Z,13.30
2022-09-12T05:14:18.906Z,13.30
2022-09-12T05:16:49.210Z,13.30
2022-09-12T05:19:16.670Z,13.40
2022-09-12T05:21:43.601Z,13.40
2022-09-12T05:24:11.342Z,13.40
2022-09-12T05:26:38.635Z,13.40
2022-09-12T05:29:07.094Z,13.50
2022-09-12T05:31:35.075Z,13.50
2022-09-12T05:34:05.944Z,13.50
2022-09-12T05:36:33.476Z,13.50
2022-09-12T05:39:01.224Z,13.60
2022-09-12T05:41:34.027Z,13.70
2022-09-12T05:44:03.367Z,13.80
2022-09-12T05:46:38.753Z,13.80
2022-09-12T05:49:07.702Z,13.90
2022-09-12T05:51:38.289Z,13.90
2022-09-12T05:54:10.430Z,13.90
2022-09-12T05:56:41.938Z,13.90
2022-09-12T05:59:19.739Z,14.00
2022-09-12T06:01:49.112Z,14.10
2022-09-12T06:04:16.933Z,14.10
2022-09-12T06:06:45.350Z,14.10
2022-09-12T06:09:14.047Z,14.20
2022-09-12T06:11:41.545Z,14.30
2022-09-12T06:14:10.022Z,14.30
2022-09-12T06:16:37.769Z,14.40
2022-09-12T06:19:19.938Z,14.40
2022-09-12T06:21:49.526Z,14.40
2022-09-12T06:24:21.781Z,14.50
2022-09-12T06:26:49.977Z,14.50
2022-09-12T06:29:17.069Z,14.60
2022-09-12T06:31:44.569Z,14.60
2022-09-12T06:34:14.312Z,14.70
2022-09-12T06:36:44.047Z,14.70
2022-09-12T06:39:13.176Z,14.80
2022-09-12T06:41:43.741Z,14.80
2022-09-12T06:44:18.302Z,14.90
2022-09-12T06:46:45.736Z,14.90
2022-09-12T06:49:12.650Z,15.00
2022-09-12T06:51:42.068Z,15.10
2022-09-12T06:54:12.169Z,15.10
2022-09-12T06:56:38.952Z,15.20
2022-09-12T06:59:06.895Z,15.30
2022-09-12T07:01:33.714Z,15.40
2022-09-12T07:04:03.960Z,15.50
2022-09-12T07:06:35.547Z,15.70
2022-09-12T07:09:04.888Z,15.90
2022-09-12T07:11:34.156Z,16.00
2022-09-12T07:14:02.760Z,16.20
2022-09-12T07:16:30.345Z,16.40
2022-09-12T07:19:05.624Z,16.70
2022-09-12T07:21:33.013Z,17.10
2022-09-12T07:24:00.028Z,17.40
2022-09-12T07:26:28.954Z,17.60
2022-09-12T07:29:08.275Z,17.80
2022-09-12T07:31:44.561Z,17.90
2022-09-12T07:34:11.411Z,18.10
2022-09-12T07:36:39.201Z,18.20
2022-09-12T07:39:06.528Z,18.30
2022-09-12T07:41:34.068Z,18.40
2022-09-12T07:44:02.730Z,18.60
2022-09-12T07:46:31.134Z,19.00
2022-09-12T07:48:59.792Z,19.30
2022-09-12T07:51:31.828Z,19.50
2022-09-12T07:53:59.196Z,19.70
2022-09-12T07:56:31.062Z,19.80
2022-09-12T07:58:59.005Z,20.10
2022-09-12T08:01:26.233Z,20.60
2022-09-12T08:03:59.676Z,20.80
2022-09-12T08:06:28.480Z,21.00
2022-09-12T08:08:56.872Z,21.10
2022-09-12T08:11:25.614Z,21.60
2022-09-12T08:13:55.821Z,21.90
2022-09-12T08:16:26.329Z,22.20
2022-09-12T08:18:53.518Z,22.40
2022-09-12T08:21:26.046Z,22.60
2022-09-12T08:23:54.983Z,22.80
2022-09-12T08:26:21.916Z,23.10
2022-09-12T08:28:49.425Z,23.50
2022-09-12T08:31:19.848Z,23.60
2022-09-12T08:33:46.966Z,23.70
2022-09-12T08:36:20.647Z,23.80
2022-09-12T08:38:49.744Z,24.10
2022-09-12T08:41:30.540Z,24.40
2022-09-12T08:44:24.530Z,24.70
2022-09-12T08:47:18.597Z,25.20
2022-09-12T08:50:09.895Z,25.60
2022-09-12T08:52:58.702Z,25.80
2022-09-12T08:55:44.202Z,25.90
2022-09-12T08:58:17.181Z,25.80
2022-09-12T09:01:04.146Z,25.70
2022-09-12T09:03:50.432Z,25.70
2022-09-12T09:06:25.915Z,25.80
2022-09-12T09:09:22.066Z,26.00
2022-09-12T09:12:30.235Z,26.20
2022-09-12T09:15:25.166Z,26.40
2022-09-12T09:18:17.880Z,26.40
2022-09-12T09:21:11.521Z,26.40
2022-09-12T09:23:51.777Z,26.30
2022-09-12T09:26:27.469Z,26.40
2022-09-12T09:29:04.776Z,26.50
2022-09-12T09:31:37.854Z,26.50
2022-09-12T09:34:31.607Z,26.50
2022-09-12T09:37:32.387Z,26.40
2022-09-12T09:40:10.035Z,26.20
2022-09-12T09:43:06.283Z,26.10
2022-09-12T09:45:33.156Z,26.10
2022-09-12T09:48:17.823Z,26.10
2022-09-12T09:50:46.755Z,26.20
2022-09-12T09:53:36.336Z,26.10
2022-09-12T09:56:09.785Z,26.20
2022-09-12T09:58:37.318Z,26.20
2022-09-12T10:01:15.778Z,26.20
2022-09-12T10:03:52.635Z,26.30
2022-09-12T10:06:26.876Z,26.40
2022-09-12T10:09:07.253Z,26.40
2022-09-12T10:11:34.168Z,26.50
2022-09-12T10:14:01.462Z,26.50
2022-09-12T10:16:33.060Z,26.50
2022-09-12T10:19:02.700Z,26.40
2022-09-12T10:21:40.973Z,26.30
2022-09-12T10:24:26.692Z,26.30
2022-09-12T10:26:58.415Z,26.30
2022-09-12T10:29:32.274Z,26.30
2022-09-12T10:32:09.451Z,26.30
2022-09-12T10:34:43.997Z,26.30
2022-09-12T10:37:30.991Z,26.20
2022-09-12T10:40:00.139Z,26.20
2022-09-12T10:42:47.795Z,26.30
2022-09-12T10:45:22.142Z,26.30
2022-09-12T10:47:50.210Z,26.30
2022-09-12T10:50:23.008Z,26.40
2022-09-12T10:52:50.171Z,26.40
2022-09-12T10:55:32.886Z,26.40
2022-09-12T10:58:22.872Z,26.40
2022-09-12T11:00:59.927Z,26.30
2022-09-12T11:03:53.422Z,26.10
2022-09-12T11:06:33.684Z,26.00
2022-09-12T11:09:21.140Z,25.90
2022-09-12T11:12:23.049Z,25.90
2022-09-12T11:15:15.006Z,25.90
2022-09-12T11:18:05.647Z,26.00
2022-09-12T11:20:56.721Z,26.10
2022-09-12T11:23:36.781Z,26.20
2022-09-12T11:26:34.260Z,26.40
2022-09-12T11:29:31.383Z,26.50
2022-09-12T11:32:46.831Z,26.60
2022-09-12T11:35:19.511Z,26.70
2022-09-12T11:37:51.519Z,26.70
2022-09-12T11:40:57.096Z,26.70
2022-09-12T11:43:46.787Z,26.80
2022-09-12T11:46:36.407Z,26.90
2022-09-12T11:49:15.754Z,26.90
2022-09-12T11:52:03.298Z,26.90
2022-09-12T11:54:42.372Z,26.90
2022-09-12T11:57:17.996Z,26.80
2022-09-12T12:00:08.049Z,27.00
2022-09-12T12:02:45.459Z,27.10
2022-09-12T12:05:39.454Z,27.20
2022-09-12T12:08:08.018Z,27.20
2022-09-12T12:10:39.797Z,27.40
2022-09-12T12:13:23.608Z,27.40
2022-09-12T12:16:04.664Z,27.40
2022-09-12T12:18:34.227Z,27.40
2022-09-12T12:21:40.093Z,27.40
2022-09-12T12:24:09.580Z,27.50
2022-09-12T12:26:42.551Z,27.50
2022-09-12T12:29:18.447Z,27.50
2022-09-12T12:32:03.682Z,27.50
2022-09-12T12:34:40.250Z,27.50
2022-09-12T12:37:18.928Z,27.50
2022-09-12T12:39:50.115Z,27.60
2022-09-12T12:42:43.086Z,27.60
2022-09-12T12:45:09.820Z,27.60
2022-09-12T12:47:36.530Z,27.70
2022-09-12T12:50:12.135Z,27.80
2022-09-12T12:53:02.961Z,27.80
2022-09-12T12:55:38.709Z,27.90
2022-09-12T12:58:38.275Z,27.80
2022-09-12T13:01:18.763Z,27.80
2022-09-12T13:03:54.216Z,27.70
2022-09-12T13:06:44.346Z,27.60
2022-09-12T13:09:41.970Z,27.70
2022-09-12T13:12:19.597Z,27.70
2022-09-12T13:15:01.150Z,27.70
2022-09-12T13:17:41.765Z,27.70
2022-09-12T13:20:28.710Z,27.80
2022-09-12T13:22:56.959Z,27.80
2022-09-12T13:25:29.557Z,27.80
2022-09-12T13:28:16.256Z,27.80
2022-09-12T13:30:47.334Z,27.70
2022-09-12T13:33:27.155Z,27.70
2022-09-12T13:36:09.930Z,27.60
2022-09-12T13:38:58.744Z,27.60
2022-09-12T13:41:59.976Z,27.60
2022-09-12T13:44:28.201Z,27.50
2022-09-12T13:47:00.503Z,27.50
2022-09-12T13:49:38.687Z,27.60
2022-09-12T13:52:08.817Z,27.70
2022-09-12T13:54:38.922Z,27.60
2022-09-12T13:57:06.522Z,27.60
2022-09-12T13:59:41.073Z,27.60
2022-09-12T14:02:22.070Z,27.60
2022-09-12T14:05:12.765Z,27.50
2022-09-12T14:07:54.593Z,27.50
2022-09-12T14:10:34.441Z,27.50
2022-09-12T14:13:05.506Z,27.50
2022-09-12T14:15:35.926Z,27.60
2022-09-12T14:18:04.466Z,27.60
2022-09-12T14:20:37.008Z,27.60
2022-09-12T14:23:27.550Z,27.60
2022-09-12T14:25:56.439Z,27.60
2022-09-12T14:28:24.721Z,27.50
2022-09-12T14:31:21.401Z,27.50
2022-09-12T14:33:56.963Z,27.50
2022-09-12T14:36:30.188Z,27.40
2022-09-12T14:39:03.772Z,27.40
2022-09-12T14:41:41.424Z,27.30
2022-09-12T14:44:20.885Z,27.20
2022-09-12T14:46:49.023Z,27.10
2022-09-12T14:49:35.059Z,27.10
2022-09-12T14:52:04.926Z,27.20
2022-09-12T14:54:32.997Z,27.00
2022-09-12T14:57:06.035Z,27.00
2022-09-12T14:59:36.117Z,27.10
2022-09-12T15:02:24.920Z,27.10
2022-09-12T15:05:12.356Z,27.10
2022-09-12T15:07:56.115Z,27.00
2022-09-12T15:10:31.792Z,26.90
2022-09-12T15:13:16.816Z,26.90
2022-09-12T15:15:49.180Z,27.00
2022-09-12T15:18:16.673Z,27.00
2022-09-12T15:20:45.618Z,27.10
2022-09-12T15:23:19.665Z,27.10
2022-09-12T15:25:47.388Z,27.10
2022-09-12T15:28:23.983Z,27.20
2022-09-12T15:30:54.211Z,27.30
2022-09-12T15:33:24.348Z,27.20
2022-09-12T15:35:52.392Z,27.30
2022-09-12T15:38:23.048Z,27.30
2022-09-12T15:40:53.738Z,27.20
2022-09-12T15:43:22.204Z,27.10
2022-09-12T15:45:51.793Z,27.00
2022-09-12T15:48:19.410Z,27.00
2022-09-12T15:50:46.275Z,26.90
2022-09-12T15:53:17.865Z,26.80
2022-09-12T15:55:44.782Z,26.80
2022-09-12T15:58:11.591Z,26.80
2022-09-12T16:00:38.306Z,26.80
2022-09-12T16:03:05.748Z,26.70
2022-09-12T16:05:32.821Z,26.60
2022-09-12T16:07:59.708Z,26.50
2022-09-12T16:10:29.997Z,26.40
2022-09-12T16:12:57.436Z,26.30
2022-09-12T16:15:25.547Z,26.30
2022-09-12T16:17:52.893Z,26.20
2022-09-12T16:20:20.852Z,26.10
2022-09-12T16:22:51.246Z,26.10
2022-09-12T16:25:18.225Z,26.00
2022-09-12T16:27:44.973Z,25.90
2022-09-12T16:30:13.093Z,26.00
2022-09-12T16:32:39.847Z,25.90
2022-09-12T16:35:07.439Z,25.80
2022-09-12T16:37:34.692Z,25.80
2022-09-12T16:40:05.593Z,25.80
2022-09-12T16:42:32.595Z,25.70
2022-09-12T16:44:59.364Z,25.60
2022-09-12T16:47:26.237Z,25.60
2022-09-12T16:49:56.321Z,25.50
2022-09-12T16:52:23.240Z,25.50
2022-09-12T16:54:50.140Z,25.50
2022-09-12T16:57:17.058Z,25.40
2022-09-12T16:59:44.051Z,25.30
2022-09-12T17:02:14.741Z,25.20
2022-09-12T17:04:41.950Z,25.10
2022-09-12T17:07:09.252Z,25.00
2022-09-12T17:09:36.194Z,24.90
2022-09-12T17:12:05.374Z,24.80
2022-09-12T17:14:32.484Z,24.80
2022-09-12T17:16:59.374Z,24.70
2022-09-12T17:19:29.890Z,24.50
2022-09-12T17:21:57.779Z,24.50
2022-09-12T17:24:25.081Z,24.40
2022-09-12T17:26:53.564Z,24.30
2022-09-12T17:29:20.580Z,24.20
2022-09-12T17:31:47.288Z,24.10
2022-09-12T17:34:15.199Z,24.10
2022-09-12T17:36:44.568Z,24.00
2022-09-12T17:39:13.711Z,23.90
2022-09-12T17:41:43.020Z,23.90
2022-09-12T17:44:13.925Z,23.80
2022-09-12T17:46:41.537Z,23.70
2022-09-12T17:49:13.676Z,23.50
2022-09-12T17:51:41.516Z,23.60
2022-09-12T17:54:15.721Z,23.50
2022-09-12T17:56:43.489Z,23.50
2022-09-12T17:59:14.849Z,23.50
2022-09-12T18:02:00.370Z,23.40
2022-09-12T18:04:27.781Z,23.40
2022-09-12T18:06:55.346Z,23.40
2022-09-12T18:09:25.620Z,23.20
2022-09-12T18:11:53.134Z,23.20
2022-09-12T18:14:21.115Z,23.20
2022-09-12T18:16:48.631Z,23.20
2022-09-12T18:19:16.183Z,23.10
2022-09-12T18:21:43.253Z,23.10
2022-09-12T18:24:11.027Z,23.10
2022-09-12T18:26:38.552Z,23.00
2022-09-12T18:29:05.899Z,23.00
2022-09-12T18:31:33.031Z,23.00
2022-09-12T18:34:01.025Z,22.80
2022-09-12T18:36:28.046Z,22.80
2022-09-12T18:38:57.556Z,22.80
2022-09-12T18:41:25.523Z,22.70
2022-09-12T18:43:56.736Z,22.70
2022-09-12T18:46:25.089Z,22.60
2022-09-12T18:48:52.415Z,22.60
2022-09-12T18:51:22.382Z,22.50
2022-09-12T18:53:54.764Z,22.50
2022-09-12T18:56:23.224Z,22.40
2022-09-12T18:58:52.434Z,22.40
2022-09-12T19:01:25.193Z,22.40
2022-09-12T19:03:53.499Z,22.30
2022-09-12T19:06:30.255Z,22.30
2022-09-12T19:08:58.898Z,22.20
2022-09-12T19:11:28.722Z,22.20
2022-09-12T19:13:56.528Z,22.20
2022-09-12T19:16:26.936Z,22.10
2022-09-12T19:18:55.737Z,22.00
2022-09-12T19:21:25.326Z,22.00
2022-09-12T19:23:54.156Z,21.90
2022-09-12T19:26:21.841Z,21.80
2022-09-12T19:28:49.669Z,21.70
2022-09-12T19:31:21.985Z,21.70
2022-09-12T19:33:49.749Z,21.70
2022-09-12T19:36:41.179Z,21.70
2022-09-12T19:39:08.391Z,21.70
2022-09-12T19:41:35.944Z,21.70
2022-09-12T19:44:03.963Z,21.70
2022-09-12T19:46:30.999Z,21.60
2022-09-12T19:48:58.048Z,21.60
2022-09-12T19:51:25.302Z,21.50
2022-09-12T19:53:53.571Z,21.40
2022-09-12T19:56:20.857Z,21.40
2022-09-12T19:59:01.339Z,21.30
2022-09-12T20:01:28.979Z,21.30
2022-09-12T20:03:57.342Z,21.20
2022-09-12T20:06:24.625Z,21.20
2022-09-12T20:08:51.653Z,21.20
2022-09-12T20:11:20.369Z,21.00
2022-09-12T20:13:47.739Z,21.10
2022-09-12T20:16:21.777Z,20.90
2022-09-12T20:18:55.830Z,20.90
2022-09-12T20:21:25.723Z,20.90
2022-09-12T20:23:52.841Z,20.80
2022-09-12T20:26:20.547Z,20.80
2022-09-12T20:28:47.843Z,20.80
2022-09-12T20:31:20.504Z,20.80
2022-09-12T20:33:51.663Z,20.90
2022-09-12T20:36:20.598Z,21.00
2022-09-12T20:38:52.665Z,20.90
2022-09-12T20:41:20.871Z,20.90
2022-09-12T20:43:52.428Z,20.90
2022-09-12T20:46:21.998Z,20.90
2022-09-12T20:48:49.378Z,20.90
2022-09-12T20:51:17.366Z,20.90
2022-09-12T20:53:44.281Z,20.90
2022-09-12T20:56:11.059Z,20.80
2022-09-12T20:58:43.046Z,20.70
2022-09-12T21:01:12.519Z,20.70
2022-09-12T21:03:40.254Z,20.70
2022-09-12T21:06:08.939Z,20.60
2022-09-12T21:08:37.093Z,20.60
2022-09-12T21:11:04.589Z,20.60
2022-09-12T21:13:31.803Z,20.50
2022-09-12T21:16:08.710Z,20.50
2022-09-12T21:18:37.291Z,20.40
2022-09-12T21:21:05.833Z,20.30
2022-09-12T21:23:35.529Z,20.30
2022-09-12T21:26:03.463Z,20.20
2022-09-12T21:28:31.051Z,20.20
2022-09-12T21:30:58.084Z,20.20
2022-09-12T21:33:25.137Z,20.10
2022-09-12T21:35:52.077Z,20.00
2022-09-12T21:38:19.925Z,20.00
2022-09-12T21:40:47.835Z,20.00
2022-09-12T21:43:15.095Z,20.00
2022-09-12T21:45:42.425Z,20.00
2022-09-12T21:48:09.380Z,20.00
2022-09-12T21:50:36.135Z,20.00
2022-09-12T21:53:03.069Z,20.10
2022-09-12T21:55:33.279Z,20.10
2022-09-12T21:58:00.481Z,20.20
2022-09-12T22:00:27.680Z,20.10
2022-09-12T22:02:54.542Z,20.10
2022-09-12T22:05:21.750Z,20.10
2022-09-12T22:07:48.530Z,20.10
2022-09-12T22:10:15.312Z,20.10
2022-09-12T22:12:46.015Z,20.10
2022-09-12T22:15:38.970Z,20.10
2022-09-12T22:18:00.881Z,20.10
2022-09-12T22:20:27.818Z,19.90
2022-09-12T22:23:13.175Z,20.10
2022-09-12T22:25:40.220Z,20.10
2022-09-12T22:28:07.168Z,20.10
2022-09-12T22:30:34.269Z,20.20
2022-09-12T22:33:01.215Z,20.10
2022-09-12T22:35:28.241Z,20.30
2022-09-12T22:37:55.012Z,20.20
2022-09-12T22:40:26.000Z,20.30
2022-09-12T22:42:54.056Z,20.20
2022-09-12T22:45:21.129Z,20.20
2022-09-12T22:47:47.906Z,20.30
2022-09-12T22:50:14.757Z,20.30
2022-09-12T22:52:41.833Z,20.30
2022-09-12T22:55:09.933Z,20.30
2022-09-12T22:57:37.472Z,20.30
2022-09-12T23:00:08.276Z,20.30
2022-09-12T23:02:35.059Z,20.30
2022-09-12T23:05:02.619Z,20.30
2022-09-12T23:07:29.450Z,20.30
2022-09-12T23:09:56.300Z,20.20
2022-09-12T23:12:23.112Z,20.20
2022-09-12T23:14:49.916Z,20.20
2022-09-12T23:17:16.603Z,20.20
2022-09-12T23:19:43.698Z,20.20
2022-09-12T23:22:10.700Z,20.20
2022-09-12T23:24:39.813Z,20.20
2022-09-12T23:27:06.589Z,20.30
2022-09-12T23:29:35.331Z,20.20
2022-09-12T23:32:06.919Z,20.20
2022-09-12T23:34:34.104Z,20.20
2022-09-12T23:37:01.772Z,20.20
2022-09-12T23:39:29.591Z,20.30
2022-09-12T23:41:56.435Z,20.20
2022-09-12T23:44:23.287Z,20.20
2022-09-12T23:46:50.063Z,20.20
2022-09-12T23:49:16.830Z,20.20
2022-09-12T23:51:44.816Z,20.20
2022-09-12T23:54:11.661Z,20.30
2022-09-12T23:56:38.446Z,20.30
2022-09-12T23:59:05.276Z,20.30
